Sunday, October 22, 2017, 5:13 PM EDT
Back to Local

KGKJ, Port Meadville Airport

Location: Meadville, PA, United States Lat: 41.633
Local Time: 5:13 PM EDT (21:13 GMT) Lon: -80.217
Time Zone: US/Eastern Elev: 1400 ft

Show me the last for .
Show Decoded

2017-10-22 16:53 METAR KGKJ 222053Z AUTO VRB04KT 10SM CLR 23/10 A3018 RMK AO2 SLP217 T02330100
                 56019 $ =
2017-10-22 15:53 METAR KGKJ 221953Z AUTO 19007G14KT 160V230 10SM CLR 23/10 A3020 RMK AO2 SLP221
                 T02280100 $ =
2017-10-22 14:53 METAR KGKJ 221853Z AUTO VRB05KT 10SM CLR 23/11 A3022 RMK AO2 SLP227 T02280106 $
                 =
2017-10-22 13:53 METAR KGKJ 221753Z AUTO VRB03KT 10SM CLR 23/12 A3024 RMK AO2 SLP235 T02280117
                 10228 20111 58015 $ =
2017-10-22 12:53 METAR KGKJ 221653Z AUTO VRB04KT 10SM CLR 22/12 A3027 RMK AO2 SLP244 T02170117 $
                 =
2017-10-22 11:53 METAR KGKJ 221553Z AUTO 18007KT 100V210 10SM CLR 20/12 A3029 RMK AO2 SLP251
                 T02000117 $ =
2017-10-22 10:53 METAR KGKJ 221453Z AUTO VRB06KT 10SM CLR 18/12 A3029 RMK AO2 SLP253 T01780117
                 58002 $ =
2017-10-22 09:53 METAR KGKJ 221353Z AUTO VRB04KT 10SM CLR 16/11 A3029 RMK AO2 SLP255 T01610111 $
                 =
2017-10-22 08:53 METAR KGKJ 221253Z AUTO VRB03KT 10SM CLR 13/09 A3030 RMK AO2 SLP257 T01330094 $
                 =
2017-10-22 07:53 METAR KGKJ 221153Z AUTO 11004KT 10SM CLR 12/09 A3029 RMK AO2 SLP256 T01170089
                 10144 20100 50000 $ =
2017-10-22 06:53 METAR KGKJ 221053Z AUTO VRB03KT 10SM CLR 11/09 A3029 RMK AO2 SLP256 T01110089 $
                 =
2017-10-22 05:53 METAR KGKJ 220953Z AUTO 00000KT 10SM CLR 12/09 A3030 RMK AO2 SLP257 T01170089 $
                 =
2017-10-22 04:53 METAR KGKJ 220853Z AUTO 00000KT 10SM CLR 11/09 A3029 RMK AO2 SLP255 T01060089
                 53011 $ =
2017-10-22 03:53 METAR KGKJ 220753Z AUTO 00000KT 10SM CLR 12/09 A3027 RMK AO2 SLP246 T01220094 $
                 =
2017-10-22 02:53 METAR KGKJ 220653Z AUTO 00000KT 10SM CLR 14/09 A3027 RMK AO2 SLP244 T01390094 $
                 =
2017-10-22 01:53 METAR KGKJ 220553Z AUTO VRB03KT 10SM CLR 13/09 A3026 RMK AO2 SLP242 T01330094
                 10183 20128 56004 $ =
2017-10-22 00:53 METAR KGKJ 220453Z AUTO 00000KT 10SM CLR 14/09 A3026 RMK AO2 SLP243 T01390094
                 402220078 $ =
2017-10-21 23:53 METAR KGKJ 220353Z AUTO 00000KT 10SM CLR 16/11 A3026 RMK AO2 SLP242 T01610106 $
                 =
2017-10-21 22:53 METAR KGKJ 220253Z AUTO 00000KT 10SM CLR 16/11 A3027 RMK AO2 SLP249 T01560106
                 50000 $ =
2017-10-21 21:53 METAR KGKJ 220153Z AUTO 00000KT 10SM CLR 16/11 A3027 RMK AO2 SLP251 T01610106 $
                 =
2017-10-21 20:53 METAR KGKJ 220053Z AUTO 00000KT 10SM CLR 18/11 A3027 RMK AO2 SLP250 T01780106 $
                 =
2017-10-21 19:53 METAR KGKJ 212353Z AUTO 00000KT 10SM CLR 18/10 A3027 RMK AO2 SLP250 T01830100
                 10222 20183 53003 $ =
2017-10-21 18:53 METAR KGKJ 212253Z AUTO 00000KT 10SM CLR 19/10 A3027 RMK AO2 SLP249 T01890100 $
                 =
2017-10-21 17:53 METAR KGKJ 212153Z AUTO VRB03KT 10SM CLR 21/09 A3026 RMK AO2 SLP243 T02060094 $
                 =

Support USWX by starting your Amazon purchase here.